Time;durP1;ratioP1;P1;durP2;ratioP2;P2;SDS_P1;SDS_P2;PMS_P1;PMS_P2;Temp;Humidity;BMP_temperature;BMP_pressure;BME280_temperature;BME280_humidity;BME280_pressure;Samples;Min_cycle;Max_cycle;Signal;HPM_P1;HPM_P2
2020/12/18 00:01:31;;;;;;;68.18;29.13;;;3.70;99.90;;;;;;4993571;28;20085;-75
2020/12/18 00:04:00;;;;;;;66.28;29.83;;;3.70;99.90;;;;;;4993961;28;20098;-75
2020/12/18 00:06:32;;;;;;;65.28;28.00;;;3.70;99.90;;;;;;4993189;28;20022;-76
2020/12/18 00:08:58;;;;;;;64.72;28.30;;;3.70;99.90;;;;;;4993122;28;20105;-76
2020/12/18 00:11:26;;;;;;;67.40;28.88;;;3.70;99.90;;;;;;4975875;28;20121;-75
2020/12/18 00:13:52;;;;;;;65.25;30.95;;;3.70;99.90;;;;;;4993142;28;20026;-75
2020/12/18 00:16:19;;;;;;;72.25;30.70;;;3.70;99.90;;;;;;4993208;28;20362;-74
2020/12/18 00:18:46;;;;;;;71.35;30.70;;;3.70;99.90;;;;;;4975919;28;20113;-76
2020/12/18 00:21:22;;;;;;;64.30;28.50;;;3.70;99.90;;;;;;4994494;28;20062;-82
2020/12/18 00:23:49;;;;;;;63.08;28.98;;;3.60;99.90;;;;;;4993979;28;20105;-75
2020/12/18 00:26:15;;;;;;;63.40;29.15;;;3.70;99.90;;;;;;4992692;28;20034;-75
2020/12/18 00:28:41;;;;;;;66.55;29.77;;;3.60;99.90;;;;;;4993151;28;20034;-75
2020/12/18 00:31:07;;;;;;;63.90;30.58;;;3.70;99.90;;;;;;4992930;28;20025;-75
2020/12/18 00:33:33;;;;;;;68.88;29.90;;;3.60;99.90;;;;;;4992668;28;20022;-74
2020/12/18 00:35:59;;;;;;;73.70;31.05;;;3.60;99.90;;;;;;4975263;28;20041;-75
2020/12/18 00:38:24;;;;;;;72.03;32.25;;;3.60;99.90;;;;;;4992714;28;20030;-75
2020/12/18 00:40:50;;;;;;;70.13;30.90;;;3.60;99.90;;;;;;4992942;28;20026;-75
2020/12/18 00:43:16;;;;;;;74.38;32.45;;;3.60;99.90;;;;;;4975198;28;20119;-74
2020/12/18 00:45:45;;;;;;;67.53;30.77;;;3.60;99.90;;;;;;4992638;28;20113;-75
2020/12/18 00:48:11;;;;;;;64.20;29.60;;;3.60;99.90;;;;;;4996804;28;20027;-82
2020/12/18 00:50:37;;;;;;;71.65;30.27;;;3.60;99.90;;;;;;5002775;28;20028;-82
2020/12/18 00:53:04;;;;;;;69.68;30.42;;;3.60;99.90;;;;;;5000542;28;20031;-81
2020/12/18 00:55:30;;;;;;;65.65;29.02;;;3.60;99.90;;;;;;4998158;28;20380;-82
2020/12/18 00:57:55;;;;;;;61.67;27.88;;;3.60;99.90;;;;;;4994558;28;20077;-82
2020/12/18 01:00:21;;;;;;;63.17;28.55;;;3.60;99.90;;;;;;4993181;28;20022;-75
2020/12/18 01:02:47;;;;;;;61.67;28.25;;;3.60;99.90;;;;;;4992488;28;20026;-74
2020/12/18 01:05:13;;;;;;;64.30;29.23;;;3.60;99.90;;;;;;4992332;28;20033;-74
2020/12/18 01:07:39;;;;;;;63.83;27.52;;;3.60;99.90;;;;;;4994289;28;20022;-82
2020/12/18 01:10:05;;;;;;;63.00;27.02;;;3.60;99.90;;;;;;4979445;28;20080;-82
2020/12/18 01:12:31;;;;;;;61.70;26.48;;;3.60;99.90;;;;;;4997398;28;20026;-75
2020/12/18 01:14:57;;;;;;;57.95;26.10;;;3.60;99.90;;;;;;4996408;28;20469;-74
2020/12/18 01:17:22;;;;;;;54.72;24.33;;;3.60;99.90;;;;;;4996444;28;20033;-74
2020/12/18 01:19:57;;;;;;;52.67;23.67;;;3.60;99.90;;;;;;4997746;28;20105;-76
2020/12/18 01:22:23;;;;;;;53.65;24.60;;;3.60;99.90;;;;;;4984232;28;20027;-82
2020/12/18 01:24:48;;;;;;;57.63;25.17;;;3.60;99.90;;;;;;5006239;28;20666;-81
2020/12/18 01:27:14;;;;;;;55.72;25.40;;;3.60;99.90;;;;;;5000447;28;20030;-82
2020/12/18 01:29:40;;;;;;;49.45;24.27;;;3.60;99.90;;;;;;4983041;28;20064;-82
2020/12/18 01:32:05;;;;;;;59.72;25.42;;;3.60;99.90;;;;;;4980927;28;20547;-82
2020/12/18 01:34:31;;;;;;;53.85;24.10;;;3.60;99.90;;;;;;4997846;28;20042;-82
2020/12/18 01:36:57;;;;;;;49.38;24.40;;;3.60;99.90;;;;;;4981572;28;20027;-82
2020/12/18 01:39:22;;;;;;;53.90;24.05;;;3.60;99.90;;;;;;5000847;28;20037;-83
2020/12/18 01:41:48;;;;;;;48.10;24.02;;;3.50;99.90;;;;;;4996778;28;20022;-82
2020/12/18 01:44:14;;;;;;;44.38;22.98;;;3.50;99.90;;;;;;4996581;28;20531;-82
2020/12/18 01:46:40;;;;;;;47.38;22.05;;;3.60;99.90;;;;;;4998175;28;20050;-83
2020/12/18 01:49:06;;;;;;;74.25;32.85;;;3.50;99.90;;;;;;5001561;28;20033;-82
2020/12/18 01:51:32;;;;;;;47.60;23.40;;;3.60;99.90;;;;;;4982118;28;20058;-83
2020/12/18 01:53:58;;;;;;;78.28;34.70;;;3.60;99.90;;;;;;4998805;28;20445;-83
2020/12/18 01:56:24;;;;;;;80.60;34.58;;;3.60;99.90;;;;;;4997806;28;20048;-83
2020/12/18 01:58:53;;;;;;;79.95;34.97;;;3.60;99.90;;;;;;4981212;28;20030;-82
2020/12/18 02:01:19;;;;;;;78.25;33.97;;;3.50;99.90;;;;;;4997695;28;20026;-83
2020/12/18 02:03:45;;;;;;;66.30;28.38;;;3.50;99.90;;;;;;4997792;28;20037;-83
2020/12/18 02:06:17;;;;;;;52.88;24.73;;;3.50;99.90;;;;;;4997747;28;20030;-83
2020/12/18 02:08:44;;;;;;;52.83;21.83;;;3.50;99.90;;;;;;4998008;28;20034;-83
2020/12/18 02:11:12;;;;;;;43.47;19.67;;;3.50;99.90;;;;;;4998204;28;20109;-83
2020/12/18 02:13:38;;;;;;;40.88;19.73;;;3.50;99.90;;;;;;4997432;28;20057;-84
2020/12/18 02:16:04;;;;;;;41.00;19.73;;;3.50;99.90;;;;;;4979673;28;20485;-83
2020/12/18 02:18:30;;;;;;;41.40;22.02;;;3.50;99.90;;;;;;4997351;28;20066;-83
2020/12/18 02:20:56;;;;;;;41.65;20.00;;;3.50;99.90;;;;;;4978616;28;20026;-83
2020/12/18 02:23:21;;;;;;;45.17;20.50;;;3.50;99.90;;;;;;4979475;28;20032;-83
2020/12/18 02:26:08;;;;;;;43.13;20.30;;;3.50;99.90;;;;;;4997265;28;20040;-83
2020/12/18 02:28:43;;;;;;;43.20;20.88;;;3.50;99.90;;;;;;4995718;28;20026;-76
2020/12/18 02:31:09;;;;;;;41.83;21.13;;;3.50;99.90;;;;;;4977612;28;20031;-76
2020/12/18 02:33:35;;;;;;;45.50;21.00;;;3.50;99.90;;;;;;4995018;28;20080;-76
2020/12/18 02:36:02;;;;;;;46.72;21.63;;;3.50;99.90;;;;;;4994873;28;20026;-76
2020/12/18 02:38:29;;;;;;;47.08;20.67;;;3.50;99.90;;;;;;4995361;28;20023;-75
2020/12/18 02:40:55;;;;;;;42.95;20.42;;;3.50;99.90;;;;;;4996065;28;20018;-80
2020/12/18 02:43:21;;;;;;;46.15;22.38;;;3.50;99.90;;;;;;4978627;28;20372;-80
2020/12/18 02:45:47;;;;;;;44.47;20.92;;;3.50;99.90;;;;;;4997109;28;20042;-81
2020/12/18 02:48:13;;;;;;;44.58;21.23;;;3.50;99.90;;;;;;4996178;28;20108;-80
2020/12/18 02:50:39;;;;;;;47.75;21.75;;;3.50;99.90;;;;;;4995696;28;20468;-81
2020/12/18 02:53:18;;;;;;;43.95;20.92;;;3.50;99.90;;;;;;4995437;28;20528;-81
2020/12/18 02:55:44;;;;;;;46.17;20.25;;;3.40;99.90;;;;;;4996130;28;20030;-81
2020/12/18 02:58:10;;;;;;;40.58;20.27;;;3.40;99.90;;;;;;4996062;28;20026;-81
2020/12/18 03:00:37;;;;;;;41.03;19.75;;;3.40;99.90;;;;;;4995741;28;20053;-81
2020/12/18 03:03:04;;;;;;;43.20;20.73;;;3.40;99.90;;;;;;4995872;28;20030;-80
2020/12/18 03:05:30;;;;;;;42.80;21.20;;;3.40;99.90;;;;;;4977634;28;20030;-76
2020/12/18 03:07:55;;;;;;;42.55;19.98;;;3.40;99.90;;;;;;4994645;28;20037;-76
2020/12/18 03:10:21;;;;;;;42.30;21.52;;;3.40;99.90;;;;;;4994446;28;20042;-76
2020/12/18 03:12:47;;;;;;;49.70;20.30;;;3.40;99.90;;;;;;4977016;28;20026;-74
2020/12/18 03:15:13;;;;;;;43.13;20.17;;;3.40;99.90;;;;;;4994270;28;20038;-75
2020/12/18 03:17:39;;;;;;;49.28;22.77;;;3.40;99.90;;;;;;4995704;28;20031;-75
2020/12/18 03:20:05;;;;;;;55.13;23.48;;;3.40;99.90;;;;;;4979882;28;20023;-76
2020/12/18 03:22:32;;;;;;;46.88;22.23;;;3.40;99.90;;;;;;4994982;28;20381;-75
2020/12/18 03:24:58;;;;;;;45.78;21.75;;;3.40;99.90;;;;;;4976795;28;20069;-75
2020/12/18 03:27:24;;;;;;;43.28;21.38;;;3.30;99.90;;;;;;4976690;28;20029;-75
2020/12/18 03:29:50;;;;;;;46.17;22.52;;;3.30;99.90;;;;;;4976665;28;20026;-75
2020/12/18 03:32:16;;;;;;;45.75;22.58;;;3.30;99.90;;;;;;4993866;28;20392;-75
2020/12/18 03:34:42;;;;;;;54.67;27.70;;;3.30;99.90;;;;;;4993870;28;20483;-75
2020/12/18 03:37:08;;;;;;;48.75;25.60;;;3.30;99.90;;;;;;4993939;28;20026;-75
2020/12/18 03:39:34;;;;;;;55.53;28.10;;;3.30;99.90;;;;;;4994053;28;20033;-74
2020/12/18 03:42:00;;;;;;;56.97;27.80;;;3.40;99.90;;;;;;4994161;28;20022;-74
2020/12/18 03:44:26;;;;;;;59.75;27.67;;;3.30;99.90;;;;;;4993817;28;20018;-74
2020/12/18 03:46:52;;;;;;;49.75;27.83;;;3.30;99.90;;;;;;4993527;28;20085;-74
2020/12/18 03:49:17;;;;;;;46.97;25.92;;;3.30;99.90;;;;;;4993826;28;20531;-75
2020/12/18 03:51:43;;;;;;;43.50;23.73;;;3.30;99.90;;;;;;4993576;28;20093;-75
2020/12/18 03:54:09;;;;;;;46.10;23.50;;;3.30;99.90;;;;;;4993785;28;20451;-75
2020/12/18 03:56:35;;;;;;;44.67;23.25;;;3.30;99.90;;;;;;4993436;28;20034;-75
2020/12/18 03:59:00;;;;;;;42.08;22.00;;;3.30;99.90;;;;;;4993436;28;20018;-76
2020/12/18 04:01:26;;;;;;;45.17;25.05;;;3.30;99.90;;;;;;4993274;28;20485;-75
2020/12/18 04:03:52;;;;;;;43.75;23.35;;;3.30;99.90;;;;;;4976021;28;20018;-76
2020/12/18 04:06:21;;;;;;;40.42;22.35;;;3.30;99.90;;;;;;4976147;28;20033;-75
2020/12/18 04:08:46;;;;;;;45.65;23.60;;;3.30;99.90;;;;;;4993303;28;20023;-76
2020/12/18 04:11:13;;;;;;;49.38;25.25;;;3.30;99.90;;;;;;4993475;28;20034;-76
2020/12/18 04:13:39;;;;;;;43.95;24.45;;;3.30;99.90;;;;;;4993211;28;20030;-76
2020/12/18 04:16:05;;;;;;;46.67;25.50;;;3.20;99.90;;;;;;4993346;28;20033;-75
2020/12/18 04:18:30;;;;;;;46.22;23.95;;;3.30;99.90;;;;;;4975999;28;20022;-77
2020/12/18 04:20:58;;;;;;;48.15;25.10;;;3.20;99.90;;;;;;4993093;28;20386;-76
2020/12/18 04:23:24;;;;;;;47.08;24.15;;;3.20;99.90;;;;;;4975732;28;20022;-76
2020/12/18 04:25:50;;;;;;;43.42;24.40;;;3.20;99.90;;;;;;4993249;28;20033;-76
2020/12/18 04:28:16;;;;;;;38.33;21.77;;;3.30;99.90;;;;;;4975405;28;20030;-76
2020/12/18 04:30:43;;;;;;;41.13;23.23;;;3.20;99.90;;;;;;4992762;28;20030;-76
2020/12/18 04:33:09;;;;;;;37.10;21.20;;;3.20;99.90;;;;;;4975080;28;20046;-76
2020/12/18 04:35:35;;;;;;;37.35;21.35;;;3.20;99.90;;;;;;4992774;28;20041;-76
2020/12/18 04:38:01;;;;;;;41.65;22.38;;;3.20;99.90;;;;;;4992972;28;20602;-76
2020/12/18 04:40:27;;;;;;;39.83;22.08;;;3.20;99.90;;;;;;4992853;28;20084;-76
2020/12/18 04:42:54;;;;;;;40.25;22.48;;;3.20;99.90;;;;;;4992629;28;20072;-77
2020/12/18 04:45:19;;;;;;;41.47;22.88;;;3.20;99.90;;;;;;4992214;28;20026;-76
2020/12/18 04:47:52;;;;;;;42.78;22.15;;;3.20;99.90;;;;;;4992405;28;20040;-76
2020/12/18 04:50:18;;;;;;;;;;;3.20;99.90;;;;;;4993303;28;20026;-75
2020/12/18 04:52:45;;;;;;;38.65;22.38;;;3.20;99.90;;;;;;4992805;28;20414;-75
2020/12/18 04:55:14;;;;;;;37.25;21.15;;;3.20;99.90;;;;;;4992411;28;20114;-76
2020/12/18 04:57:43;;;;;;;37.15;20.38;;;3.20;99.90;;;;;;4992406;28;20014;-76
2020/12/18 05:00:08;;;;;;;42.38;21.90;;;3.10;99.90;;;;;;4992323;28;20101;-76
2020/12/18 05:02:35;;;;;;;39.03;22.13;;;3.10;99.90;;;;;;4992513;28;20109;-77
2020/12/18 05:05:01;;;;;;;38.85;21.25;;;3.10;99.90;;;;;;4992376;28;20505;-77
2020/12/18 05:07:27;;;;;;;36.72;20.77;;;3.10;99.90;;;;;;4992649;28;20092;-77
2020/12/18 05:09:54;;;;;;;40.40;21.73;;;3.10;99.90;;;;;;4991839;28;20026;-75
2020/12/18 05:12:20;;;;;;;43.67;22.30;;;3.10;99.90;;;;;;4992296;28;20029;-76
2020/12/18 05:14:46;;;;;;;39.85;20.50;;;3.10;99.90;;;;;;4992341;28;20084;-76
2020/12/18 05:17:12;;;;;;;38.95;21.83;;;3.10;99.90;;;;;;4975064;28;20062;-75
2020/12/18 05:19:42;;;;;;;35.67;20.45;;;3.10;99.90;;;;;;4992102;28;20054;-77
2020/12/18 05:22:10;;;;;;;38.35;21.75;;;3.10;99.90;;;;;;4994230;28;20061;-84
2020/12/18 05:24:37;;;;;;;37.38;19.77;;;3.10;99.90;;;;;;4977343;28;20039;-83
2020/12/18 05:27:07;;;;;;;35.08;20.20;;;3.10;99.90;;;;;;4994882;28;20027;-85
2020/12/18 05:29:36;;;;;;;42.60;20.88;;;3.10;99.90;;;;;;4994973;28;20026;-83
2020/12/18 05:32:02;;;;;;;41.90;21.52;;;3.10;99.90;;;;;;4993539;28;20026;-76
2020/12/18 05:34:28;;;;;;;36.00;20.33;;;3.10;99.90;;;;;;4974854;28;20485;-77
2020/12/18 05:36:55;;;;;;;38.53;19.98;;;3.10;99.90;;;;;;4991837;28;20031;-77
2020/12/18 05:39:22;;;;;;;35.58;19.83;;;3.10;99.90;;;;;;4991980;28;20034;-78
2020/12/18 05:41:59;;;;;;;37.00;19.08;;;3.10;99.90;;;;;;4992102;28;20030;-77
2020/12/18 05:44:26;;;;;;;33.22;19.45;;;3.00;99.90;;;;;;4992688;28;20034;-77
2020/12/18 05:46:52;;;;;;;36.90;18.67;;;3.00;99.90;;;;;;4992436;28;20413;-78
2020/12/18 05:49:28;;;;;;;33.17;18.33;;;3.10;99.90;;;;;;4975775;28;20053;-77
2020/12/18 05:51:54;;;;;;;34.38;17.50;;;3.10;99.90;;;;;;4997907;28;20504;-77
2020/12/18 05:54:20;;;;;;;29.55;17.65;;;3.10;99.90;;;;;;4992748;28;20031;-78
2020/12/18 05:56:48;;;;;;;32.83;17.95;;;3.10;99.90;;;;;;4996567;28;20105;-77
2020/12/18 05:59:18;;;;;;;32.05;17.65;;;3.10;99.90;;;;;;4996335;28;20492;-76
2020/12/18 06:01:45;;;;;;;30.70;17.90;;;3.10;99.90;;;;;;4995456;28;20025;-77
2020/12/18 06:04:24;;;;;;;30.20;17.23;;;3.10;99.90;;;;;;4995115;28;20388;-77
2020/12/18 06:06:52;;;;;;;30.98;16.83;;;3.00;99.90;;;;;;4995352;28;20018;-75
2020/12/18 06:09:28;;;;;;;31.90;16.25;;;3.00;99.90;;;;;;4995223;28;20030;-78
2020/12/18 06:11:54;;;;;;;36.30;16.33;;;3.00;99.90;;;;;;4996199;28;20022;-82
2020/12/18 06:14:20;;;;;;;30.80;16.50;;;3.00;99.90;;;;;;4997630;28;20473;-82
2020/12/18 06:16:53;;;;;;;29.95;16.52;;;3.00;99.90;;;;;;4999056;28;20532;-82
2020/12/18 06:19:21;;;;;;;33.28;17.98;;;3.00;99.90;;;;;;4999408;28;20025;-85
2020/12/18 06:21:57;;;;;;;33.85;18.35;;;3.00;99.90;;;;;;4999439;28;20023;-83
2020/12/18 06:24:24;;;;;;;30.52;17.30;;;3.00;99.90;;;;;;4997098;28;20042;-84
2020/12/18 06:26:55;;;;;;;33.55;15.88;;;3.10;99.90;;;;;;4996836;28;20143;-84
2020/12/18 06:29:23;;;;;;;29.48;15.85;;;3.10;99.90;;;;;;4996424;28;20130;-87
2020/12/18 06:31:49;;;;;;;28.50;16.08;;;3.10;99.90;;;;;;4980158;28;20031;-85
2020/12/18 06:34:29;;;;;;;27.80;14.85;;;3.10;99.90;;;;;;4979429;28;20037;-85
2020/12/18 06:36:59;;;;;;;28.90;15.95;;;3.10;99.90;;;;;;4996203;28;20077;-85
2020/12/18 06:39:33;;;;;;;28.98;15.45;;;3.10;99.90;;;;;;4978810;28;20461;-85
2020/12/18 06:42:11;;;;;;;29.17;13.77;;;3.10;99.90;;;;;;4998150;28;20045;-85
2020/12/18 06:44:40;;;;;;;24.50;14.48;;;3.10;99.90;;;;;;4995671;28;20022;-86
2020/12/18 06:47:09;;;;;;;26.58;14.75;;;3.20;99.90;;;;;;4995620;28;20047;-84
2020/12/18 06:50:03;;;;;;;27.40;14.75;;;3.20;99.90;;;;;;4995656;28;20023;-82
2020/12/18 06:52:40;;;;;;;25.08;14.55;;;3.20;99.90;;;;;;4994631;28;20022;-81
2020/12/18 06:55:26;;;;;;;28.13;15.32;;;3.20;99.90;;;;;;4994302;28;20387;-82
2020/12/18 06:58:09;;;;;;;25.45;14.70;;;3.20;99.90;;;;;;4984030;28;20077;-81
2020/12/18 07:00:48;;;;;;;38.47;21.17;;;3.20;99.90;;;;;;4977418;28;20030;-81
2020/12/18 07:03:43;;;;;;;49.85;27.00;;;3.30;99.90;;;;;;4977147;28;20120;-81
2020/12/18 07:06:22;;;;;;;30.25;16.55;;;3.30;99.90;;;;;;4993925;28;20448;-81
2020/12/18 07:08:48;;;;;;;28.98;16.27;;;3.30;99.90;;;;;;4993813;28;20050;-82
2020/12/18 07:11:15;;;;;;;25.15;14.65;;;3.30;99.90;;;;;;4993959;28;20030;-81
2020/12/18 07:13:47;;;;;;;27.27;15.15;;;3.30;99.90;;;;;;4994684;28;20037;-81
2020/12/18 07:16:16;;;;;;;33.25;17.05;;;3.30;99.90;;;;;;4994874;28;20033;-80
2020/12/18 07:18:43;;;;;;;25.05;14.73;;;3.30;99.90;;;;;;4994104;28;20362;-76
2020/12/18 07:21:13;;;;;;;25.67;15.20;;;3.30;99.90;;;;;;4993831;28;20022;-75
2020/12/18 07:23:42;;;;;;;28.08;15.95;;;3.40;99.90;;;;;;4994023;28;20018;-75
2020/12/18 07:26:09;;;;;;;28.45;16.10;;;3.40;99.90;;;;;;4992828;28;20034;-77
2020/12/18 07:28:42;;;;;;;31.73;17.55;;;3.40;99.90;;;;;;4975845;28;20102;-74
2020/12/18 07:31:27;;;;;;;34.65;17.58;;;3.50;99.90;;;;;;4993151;28;20038;-74
2020/12/18 07:34:00;;;;;;;30.27;16.20;;;3.50;99.90;;;;;;4993442;28;20019;-81
2020/12/18 07:36:30;;;;;;;30.23;16.90;;;3.50;99.90;;;;;;4993717;28;20031;-81
2020/12/18 07:39:00;;;;;;;34.75;17.75;;;3.50;99.90;;;;;;4993771;28;20501;-81
2020/12/18 07:41:29;;;;;;;30.15;15.75;;;3.50;99.90;;;;;;4993524;28;20019;-80
2020/12/18 07:44:06;;;;;;;27.70;16.17;;;3.50;99.90;;;;;;4993832;28;20030;-81
2020/12/18 07:46:34;;;;;;;26.45;15.10;;;3.60;99.90;;;;;;4994083;28;20061;-79
2020/12/18 07:49:07;;;;;;;29.00;15.75;;;3.50;99.90;;;;;;4976327;28;20430;-81
2020/12/18 07:51:33;;;;;;;30.20;17.55;;;3.50;99.90;;;;;;4993580;28;20031;-81
2020/12/18 07:53:59;;;;;;;31.13;17.98;;;3.60;99.90;;;;;;4976317;28;20053;-80
2020/12/18 07:56:25;;;;;;;30.85;18.02;;;3.50;99.90;;;;;;4994030;28;20465;-80
2020/12/18 07:59:05;;;;;;;30.00;17.95;;;3.50;99.90;;;;;;4993563;28;20041;-81
2020/12/18 08:01:33;;;;;;;35.63;19.52;;;3.60;99.90;;;;;;4993422;28;20030;-81
2020/12/18 08:04:01;;;;;;;36.03;19.73;;;3.60;99.90;;;;;;4992920;28;20019;-75
2020/12/18 08:06:34;;;;;;;35.33;19.63;;;3.60;99.90;;;;;;4992559;28;20030;-76
2020/12/18 08:09:04;;;;;;;31.65;21.08;;;3.60;99.90;;;;;;4992609;28;20105;-74
2020/12/18 08:11:37;;;;;;;34.25;20.73;;;3.70;99.90;;;;;;4993075;28;20029;-75
2020/12/18 08:14:05;;;;;;;34.15;19.98;;;3.70;99.90;;;;;;4992545;28;20380;-75
2020/12/18 08:16:33;;;;;;;31.90;17.80;;;3.70;99.90;;;;;;4992582;28;20041;-75
2020/12/18 08:19:01;;;;;;;29.80;16.58;;;3.80;99.90;;;;;;4991909;28;20027;-76
2020/12/18 08:21:35;;;;;;;31.48;17.05;;;3.80;99.90;;;;;;4992527;28;20491;-74
2020/12/18 08:24:08;;;;;;;27.95;17.08;;;3.80;99.90;;;;;;4992730;28;20030;-74
2020/12/18 08:26:40;;;;;;;29.08;17.13;;;3.90;99.90;;;;;;4992802;28;20026;-74
2020/12/18 08:29:06;;;;;;;;;;;3.90;99.90;;;;;;4992604;28;20417;-75
2020/12/18 08:31:35;;;;;;;44.25;23.17;;;3.80;99.90;;;;;;4992375;28;19909;-75
2020/12/18 08:34:07;;;;;;;35.75;17.88;;;3.80;99.90;;;;;;4992261;28;20022;-74
2020/12/18 08:36:53;;;;;;;;;;;3.70;99.90;;;;;;4992547;28;20392;-74
2020/12/18 08:39:19;;;;;;;29.23;15.88;;;3.70;99.90;;;;;;4974339;28;20303;-74
2020/12/18 08:41:53;;;;;;;38.10;20.20;;;3.70;99.90;;;;;;4991976;28;20038;-74
2020/12/18 08:44:25;;;;;;;36.42;18.20;;;3.70;99.90;;;;;;4992046;28;20105;-73
2020/12/18 08:46:51;;;;;;;24.00;14.80;;;3.70;99.90;;;;;;4974583;28;20058;-73
2020/12/18 08:49:20;;;;;;;27.42;16.67;;;3.70;99.90;;;;;;4974917;28;20165;-75
2020/12/18 08:51:51;;;;;;;26.85;16.08;;;3.80;99.90;;;;;;4992286;28;20026;-75
2020/12/18 08:54:26;;;;;;;29.20;16.77;;;3.80;99.90;;;;;;4991744;28;20076;-74
2020/12/18 08:57:13;;;;;;;22.50;13.93;;;3.80;99.90;;;;;;4991430;28;20061;-74
2020/12/18 09:00:01;;;;;;;21.30;13.40;;;3.90;99.90;;;;;;4973978;28;20030;-74
2020/12/18 09:02:31;;;;;;;24.77;13.70;;;3.90;99.90;;;;;;4991800;28;20026;-75
2020/12/18 09:05:22;;;;;;;30.00;17.92;;;3.90;99.90;;;;;;4974406;28;20354;-75
2020/12/18 09:07:55;;;;;;;23.05;14.20;;;3.90;99.90;;;;;;4991876;28;20033;-77
2020/12/18 09:10:30;;;;;;;27.02;14.02;;;4.00;99.90;;;;;;4991435;28;20482;-76
2020/12/18 09:12:56;;;;;;;26.52;14.32;;;4.00;99.90;;;;;;4991073;28;20034;-76
2020/12/18 09:15:23;;;;;;;30.25;16.80;;;4.00;99.90;;;;;;4991254;28;20420;-78
2020/12/18 09:18:20;;;;;;;26.67;15.63;;;4.00;99.90;;;;;;4991444;28;20046;-77
2020/12/18 09:20:46;;;;;;;23.90;14.60;;;4.00;99.90;;;;;;4973142;28;20027;-77
2020/12/18 09:23:16;;;;;;;21.85;13.68;;;4.00;99.90;;;;;;4991669;28;20117;-84
2020/12/18 09:25:49;;;;;;;23.08;14.18;;;4.00;99.90;;;;;;4976119;28;20026;-82
2020/12/18 09:28:18;;;;;;;23.65;14.45;;;4.00;99.90;;;;;;4993160;28;20463;-81
2020/12/18 09:30:52;;;;;;;20.90;13.50;;;4.00;99.90;;;;;;4976763;28;20033;-83
2020/12/18 09:33:24;;;;;;;27.75;16.88;;;3.90;99.90;;;;;;4997370;28;20026;-85
2020/12/18 09:35:55;;;;;;;33.88;21.13;;;4.00;99.90;;;;;;4997098;28;20177;-87
2020/12/18 09:38:23;;;;;;;28.40;17.33;;;4.00;99.90;;;;;;4996659;28;20022;-86
2020/12/18 09:40:49;;;;;;;25.52;15.70;;;4.00;99.90;;;;;;4996845;28;20019;-86
2020/12/18 09:43:15;;;;;;;24.83;13.50;;;4.00;99.90;;;;;;4997017;28;20032;-85
2020/12/18 09:45:41;;;;;;;24.13;14.15;;;4.00;99.90;;;;;;4979097;28;20054;-88
2020/12/18 09:48:07;;;;;;;21.58;13.73;;;4.00;99.90;;;;;;4994939;28;20038;-78
2020/12/18 09:50:32;;;;;;;24.42;14.68;;;4.00;99.90;;;;;;4996002;28;20038;-84
2020/12/18 09:52:58;;;;;;;21.98;13.95;;;4.00;99.90;;;;;;4997541;28;20109;-85
2020/12/18 09:55:24;;;;;;;22.08;13.88;;;4.00;99.90;;;;;;4996923;28;20026;-87
2020/12/18 09:57:51;;;;;;;25.90;14.82;;;4.00;99.90;;;;;;4980551;28;20022;-86
2020/12/18 10:00:16;;;;;;;28.85;16.05;;;4.00;99.90;;;;;;4997822;28;20090;-86
2020/12/18 10:02:42;;;;;;;30.48;17.05;;;4.00;99.90;;;;;;4996913;28;20026;-87
2020/12/18 10:05:08;;;;;;;28.42;16.80;;;4.00;99.90;;;;;;4996936;28;20033;-86
2020/12/18 10:07:33;;;;;;;26.98;15.40;;;4.00;99.90;;;;;;4997135;28;20041;-86
2020/12/18 10:09:59;;;;;;;26.88;15.95;;;4.00;99.90;;;;;;4997033;28;20026;-86
2020/12/18 10:12:25;;;;;;;27.88;15.63;;;3.90;99.90;;;;;;4996245;28;20110;-87
2020/12/18 10:14:51;;;;;;;29.20;15.98;;;3.90;99.90;;;;;;4996325;28;20026;-86
2020/12/18 10:17:17;;;;;;;32.75;15.63;;;4.00;99.90;;;;;;4997489;28;20030;-86
2020/12/18 10:19:43;;;;;;;25.20;15.40;;;4.00;99.90;;;;;;5004940;28;20018;-86
2020/12/18 10:22:09;;;;;;;28.42;16.20;;;4.00;99.90;;;;;;4996618;28;20029;-85
2020/12/18 10:24:35;;;;;;;29.27;16.50;;;4.00;99.90;;;;;;4997122;28;20022;-85
2020/12/18 10:27:00;;;;;;;27.60;15.18;;;4.00;99.90;;;;;;4979116;28;20081;-86
2020/12/18 10:29:26;;;;;;;22.52;14.80;;;4.00;99.90;;;;;;4979377;28;20033;-86
2020/12/18 10:31:54;;;;;;;25.45;15.23;;;4.10;99.90;;;;;;4997670;28;20038;-88
2020/12/18 10:34:19;;;;;;;27.17;16.17;;;4.10;99.90;;;;;;4979119;28;20038;-88
2020/12/18 10:36:49;;;;;;;27.83;17.50;;;4.10;99.90;;;;;;4996688;28;20038;-85
2020/12/18 10:39:23;;;;;;;26.50;15.73;;;4.10;99.90;;;;;;4976996;28;20038;-78
2020/12/18 10:41:49;;;;;;;24.38;14.57;;;4.10;99.90;;;;;;4976017;28;20469;-77
2020/12/18 10:44:18;;;;;;;27.13;15.85;;;4.10;99.90;;;;;;4994739;28;20030;-86
2020/12/18 10:46:45;;;;;;;26.52;16.00;;;4.10;99.90;;;;;;4996374;28;20559;-87
2020/12/18 10:49:12;;;;;;;28.75;16.85;;;4.00;99.90;;;;;;4978349;28;20030;-86
2020/12/18 10:51:39;;;;;;;24.70;15.60;;;4.00;99.90;;;;;;4978045;28;20113;-86
2020/12/18 10:54:05;;;;;;;25.27;15.73;;;4.00;99.90;;;;;;4978210;28;20076;-85
2020/12/18 10:56:31;;;;;;;24.92;16.70;;;4.00;99.90;;;;;;4996156;28;20038;-86
2020/12/18 10:58:57;;;;;;;26.33;15.82;;;4.00;99.90;;;;;;4994323;28;20041;-86
2020/12/18 11:01:23;;;;;;;25.55;15.20;;;4.00;99.90;;;;;;4995443;28;20049;-85
2020/12/18 11:03:49;;;;;;;26.83;15.98;;;4.00;99.90;;;;;;4977529;28;20042;-87
2020/12/18 11:06:14;;;;;;;26.90;15.63;;;4.00;99.90;;;;;;4995230;28;20481;-87
2020/12/18 11:08:40;;;;;;;23.95;15.48;;;4.00;99.90;;;;;;4995036;28;20497;-88
2020/12/18 11:11:13;;;;;;;25.38;15.70;;;4.00;99.90;;;;;;4995396;28;20038;-87
2020/12/18 11:13:38;;;;;;;;;;;4.00;99.90;;;;;;5003775;28;20026;-85
2020/12/18 11:16:04;;;;;;;24.95;15.77;;;4.00;99.90;;;;;;5004458;28;19913;-81
2020/12/18 11:18:30;;;;;;;25.48;15.40;;;4.00;99.90;;;;;;5315036;23;20050;-74
2020/12/18 11:21:03;;;;;;;26.05;15.55;;;4.00;99.90;;;;;;4991704;28;20907;-73
2020/12/18 11:23:29;;;;;;;23.27;14.50;;;4.00;99.90;;;;;;5310907;23;20059;-76
2020/12/18 11:25:55;;;;;;;25.98;14.88;;;4.00;99.90;;;;;;4992513;28;20046;-76
2020/12/18 11:28:21;;;;;;;24.85;15.02;;;4.00;99.90;;;;;;4992904;28;20034;-76
2020/12/18 11:30:47;;;;;;;24.40;14.80;;;4.00;99.90;;;;;;4981314;28;20105;-76
2020/12/18 11:33:12;;;;;;;26.58;15.32;;;4.10;99.90;;;;;;4994950;28;20122;-76
2020/12/18 11:35:38;;;;;;;24.80;15.73;;;4.00;99.90;;;;;;4999796;28;20034;-76
2020/12/18 11:38:04;;;;;;;25.20;15.93;;;4.00;99.90;;;;;;5007669;28;20014;-76
2020/12/18 11:40:29;;;;;;;28.85;18.48;;;4.00;99.90;;;;;;5000384;28;20022;-76
2020/12/18 11:42:55;;;;;;;28.27;16.25;;;4.00;99.90;;;;;;5001955;28;20036;-77
2020/12/18 11:45:21;;;;;;;27.77;15.98;;;4.00;99.90;;;;;;5000326;28;20026;-76
2020/12/18 11:47:46;;;;;;;25.98;16.35;;;4.00;99.90;;;;;;5000762;28;20021;-76
2020/12/18 11:50:12;;;;;;;32.08;18.88;;;4.00;99.90;;;;;;5001825;28;20077;-76
2020/12/18 11:52:38;;;;;;;29.13;17.38;;;4.00;99.90;;;;;;4999917;28;20501;-76
2020/12/18 11:55:04;;;;;;;27.02;16.67;;;4.00;99.90;;;;;;4993726;28;20077;-76
2020/12/18 11:57:30;;;;;;;27.70;17.77;;;4.00;99.90;;;;;;4991928;28;20022;-76
2020/12/18 11:59:55;;;;;;;28.20;16.40;;;4.00;99.90;;;;;;5193281;23;20140;-78
2020/12/18 12:02:21;;;;;;;25.85;16.30;;;4.10;99.90;;;;;;5031091;28;20041;-75
2020/12/18 12:04:47;;;;;;;27.67;16.20;;;4.10;99.90;;;;;;5031587;28;20455;-77
2020/12/18 12:07:12;;;;;;;27.00;16.17;;;4.10;99.90;;;;;;5032021;28;20442;-78
2020/12/18 12:09:38;;;;;;;25.40;15.23;;;4.10;99.90;;;;;;5031829;28;20045;-78
2020/12/18 12:12:04;;;;;;;27.15;16.52;;;4.10;99.90;;;;;;5031323;28;20351;-76
2020/12/18 12:14:30;;;;;;;24.70;15.85;;;4.10;99.90;;;;;;5031349;28;20083;-76
2020/12/18 12:16:55;;;;;;;32.20;19.33;;;4.10;99.90;;;;;;5031161;28;20025;-76
2020/12/18 12:19:22;;;;;;;28.52;15.80;;;4.10;99.90;;;;;;5031313;28;20041;-76
2020/12/18 12:21:48;;;;;;;25.40;16.08;;;4.10;99.90;;;;;;5030950;28;20022;-77
2020/12/18 12:24:14;;;;;;;27.25;16.05;;;4.10;99.90;;;;;;5030948;28;20294;-77
2020/12/18 12:26:39;;;;;;;28.63;17.25;;;4.10;99.90;;;;;;5031124;28;20108;-75
2020/12/18 12:29:05;;;;;;;26.85;16.17;;;4.20;99.90;;;;;;5030599;28;20029;-74
2020/12/18 12:31:31;;;;;;;30.23;17.33;;;4.20;99.90;;;;;;5030882;28;20036;-75
2020/12/18 12:33:56;;;;;;;29.02;17.73;;;4.20;99.90;;;;;;5030442;28;20108;-76
2020/12/18 12:36:24;;;;;;;24.55;15.38;;;4.20;99.90;;;;;;5030569;28;20057;-73
2020/12/18 12:38:51;;;;;;;29.17;15.45;;;4.20;99.90;;;;;;5012472;28;20043;-75
2020/12/18 12:41:17;;;;;;;25.42;15.98;;;4.20;99.90;;;;;;5030911;28;20025;-73
2020/12/18 12:43:43;;;;;;;28.83;16.80;;;4.20;99.90;;;;;;5030925;28;20403;-74